createdAt,value
2023-04-15T00:00:31.955Z,8.63
2023-04-15T00:03:02.566Z,8.61
2023-04-15T00:05:33.476Z,8.60
2023-04-15T00:08:04.593Z,8.58
2023-04-15T00:10:37.175Z,8.56
2023-04-15T00:13:07.176Z,8.54
2023-04-15T00:15:37.940Z,8.51
2023-04-15T00:18:08.363Z,8.49
2023-04-15T00:20:38.625Z,8.46
2023-04-15T00:23:08.429Z,8.44
2023-04-15T00:25:41.293Z,8.41
2023-04-15T00:28:11.567Z,8.36
2023-04-15T00:30:44.213Z,8.32
2023-04-15T00:33:14.122Z,8.30
2023-04-15T00:42:29.208Z,8.19
2023-04-15T00:45:12.718Z,8.16
2023-04-15T00:47:46.490Z,8.11
2023-04-15T00:50:26.124Z,8.11
2023-04-15T00:52:58.175Z,8.07
2023-04-15T00:55:35.706Z,8.05
2023-04-15T00:58:08.301Z,8.03
2023-04-15T01:00:38.148Z,8.03
2023-04-15T01:03:11.873Z,8.02
2023-04-15T01:05:42.637Z,8.02
2023-04-15T01:08:25.476Z,8.01
2023-04-15T01:11:00.355Z,8.00
2023-04-15T01:13:33.679Z,7.96
2023-04-15T01:16:13.093Z,7.94
2023-04-15T01:18:44.996Z,7.94
2023-04-15T01:21:15.054Z,7.92
2023-04-15T01:23:47.414Z,7.90
2023-04-15T01:26:20.261Z,7.89
2023-04-15T01:28:50.910Z,7.86
2023-04-15T01:31:23.124Z,7.85
2023-04-15T01:33:53.074Z,7.83
2023-04-15T01:36:22.958Z,7.83
2023-04-15T01:38:55.177Z,7.83
2023-04-15T01:41:28.859Z,7.83
2023-04-15T01:43:58.951Z,7.84
2023-04-15T01:46:28.856Z,7.84
2023-04-15T01:48:58.879Z,7.84
2023-04-15T01:51:29.002Z,7.83
2023-04-15T01:54:01.136Z,7.82
2023-04-15T01:56:37.833Z,7.80
2023-04-15T01:59:10.554Z,7.78
2023-04-15T02:01:53.457Z,7.80
2023-04-15T02:04:32.423Z,7.80
2023-04-15T02:07:02.288Z,7.79
2023-04-15T02:09:33.946Z,7.78
2023-04-15T02:12:06.382Z,7.79
2023-04-15T02:14:42.183Z,7.78
2023-04-15T02:17:14.256Z,7.75
2023-04-15T02:25:58.266Z,7.69
2023-04-15T02:31:28.385Z,7.64
2023-04-15T02:33:58.245Z,7.59
2023-04-15T02:36:30.024Z,7.54
2023-04-15T02:39:00.271Z,7.50
2023-04-15T02:41:30.338Z,7.45
2023-04-15T02:44:02.754Z,7.39
2023-04-15T02:46:32.599Z,7.35
2023-04-15T02:49:03.601Z,7.33
2023-04-15T02:51:34.317Z,7.30
2023-04-15T02:54:04.227Z,7.25
2023-04-15T02:56:34.052Z,7.23
2023-04-15T02:59:10.334Z,7.24
2023-04-15T03:01:40.196Z,7.21
2023-04-15T03:04:11.275Z,7.18
2023-04-15T03:06:41.228Z,7.14
2023-04-15T03:09:11.038Z,7.11
2023-04-15T03:11:42.332Z,7.11
2023-04-15T03:14:14.734Z,7.10
2023-04-15T03:16:48.530Z,7.07
2023-04-15T03:19:18.333Z,7.04
2023-04-15T03:21:48.118Z,6.99
2023-04-15T03:24:17.929Z,6.97
2023-04-15T03:26:47.821Z,6.96
2023-04-15T03:29:20.252Z,6.97
2023-04-15T03:31:50.070Z,6.97
2023-04-15T03:34:19.889Z,6.96
2023-04-15T03:36:51.500Z,6.93
2023-04-15T03:39:21.634Z,6.93
2023-04-15T03:41:51.468Z,6.94
2023-04-15T03:44:23.891Z,7.00
2023-04-15T03:46:57.588Z,7.00
2023-04-15T03:49:36.587Z,7.01
2023-04-15T03:52:06.447Z,7.04
2023-04-15T03:54:36.381Z,7.04
2023-04-15T03:57:09.602Z,7.05
2023-04-15T03:59:42.278Z,7.06
2023-04-15T04:02:12.265Z,7.06
2023-04-15T04:04:58.193Z,7.05
2023-04-15T04:07:35.245Z,7.04
2023-04-15T04:10:17.438Z,7.04
2023-04-15T04:12:47.264Z,7.03
2023-04-15T04:15:19.903Z,7.00
2023-04-15T04:17:49.772Z,7.00
2023-04-15T04:20:19.738Z,7.01
2023-04-15T04:22:49.616Z,7.02
2023-04-15T04:25:19.461Z,7.06
2023-04-15T04:27:51.638Z,7.11
2023-04-15T04:30:30.178Z,7.16
2023-04-15T04:33:00.382Z,7.22
2023-04-15T04:35:31.084Z,7.25
2023-04-15T04:38:00.928Z,7.28
2023-04-15T04:40:30.729Z,7.27
2023-04-15T04:43:01.438Z,7.26
2023-04-15T04:45:34.311Z,7.28
2023-04-15T04:48:07.315Z,7.29
2023-04-15T04:50:37.410Z,7.28
2023-04-15T04:53:07.255Z,7.27
2023-04-15T04:55:37.462Z,7.28
2023-04-15T04:58:12.786Z,7.30
2023-04-15T05:00:46.328Z,7.32
2023-04-15T05:03:16.562Z,7.33
2023-04-15T05:05:48.344Z,7.37
2023-04-15T05:08:18.236Z,7.41
2023-04-15T05:10:48.099Z,7.54
2023-04-15T05:13:17.942Z,7.74
2023-04-15T05:15:51.204Z,7.98
2023-04-15T05:18:21.260Z,8.20
2023-04-15T05:20:54.045Z,8.33
2023-04-15T05:23:24.123Z,8.38
2023-04-15T05:25:54.059Z,8.40
2023-04-15T05:28:24.210Z,8.41
2023-04-15T05:31:02.090Z,8.42
2023-04-15T05:33:31.919Z,8.42
2023-04-15T05:36:01.800Z,8.47
2023-04-15T05:38:31.593Z,8.48
2023-04-15T05:41:01.695Z,8.51
2023-04-15T05:43:31.911Z,8.52
2023-04-15T05:46:04.502Z,8.57
2023-04-15T05:48:34.582Z,8.61
2023-04-15T05:51:06.145Z,8.66
2023-04-15T05:53:36.097Z,8.73
2023-04-15T05:56:06.022Z,8.78
2023-04-15T05:58:36.154Z,8.86
2023-04-15T06:01:10.423Z,8.96
2023-04-15T06:03:41.193Z,9.02
2023-04-15T06:06:11.195Z,9.08
2023-04-15T06:08:40.988Z,9.18
2023-04-15T06:11:10.830Z,9.21
2023-04-15T06:13:40.855Z,9.27
2023-04-15T06:16:13.756Z,9.32
2023-04-15T06:18:43.592Z,9.36
2023-04-15T06:21:13.507Z,9.44
2023-04-15T06:23:43.998Z,9.54
2023-04-15T06:26:13.937Z,9.59
2023-04-15T06:28:43.768Z,9.63
2023-04-15T06:31:16.394Z,9.67
2023-04-15T06:33:47.839Z,9.69
2023-04-15T06:36:17.894Z,9.68
2023-04-15T06:38:47.767Z,9.66
2023-04-15T06:41:17.674Z,9.68
2023-04-15T06:43:47.632Z,9.67
2023-04-15T06:46:22.461Z,9.64
2023-04-15T06:48:52.722Z,9.65
2023-04-15T06:51:23.219Z,9.65
2023-04-15T06:53:53.842Z,9.68
2023-04-15T06:56:23.711Z,9.72
2023-04-15T06:58:57.542Z,9.74
2023-04-15T07:01:40.381Z,9.76
2023-04-15T07:04:10.329Z,9.72
2023-04-15T07:06:42.432Z,9.72
2023-04-15T07:09:12.411Z,9.75
2023-04-15T07:11:42.430Z,9.79
2023-04-15T07:14:12.276Z,9.82
2023-04-15T07:16:44.813Z,9.86
2023-04-15T07:19:14.829Z,9.85
2023-04-15T07:21:44.714Z,9.85
2023-04-15T07:24:17.151Z,9.80
2023-04-15T07:26:48.883Z,9.75
2023-04-15T07:29:18.695Z,9.71
2023-04-15T07:31:51.471Z,9.71
2023-04-15T07:34:22.255Z,9.71
2023-04-15T07:36:52.304Z,9.71
2023-04-15T07:39:22.587Z,9.66
2023-04-15T07:41:52.528Z,9.69
2023-04-15T07:44:22.413Z,9.72
2023-04-15T07:46:54.869Z,9.71
2023-04-15T07:49:24.795Z,9.68
2023-04-15T07:51:55.152Z,9.61
2023-04-15T07:54:24.957Z,9.54
2023-04-15T07:56:54.763Z,9.44
2023-04-15T07:59:24.610Z,9.35
2023-04-15T08:01:57.916Z,9.31
2023-04-15T08:04:28.856Z,9.24
2023-04-15T08:06:58.756Z,9.20
2023-04-15T08:09:28.610Z,9.18
2023-04-15T08:11:59.116Z,9.19
2023-04-15T08:14:28.975Z,9.19
2023-04-15T08:17:01.397Z,9.18
2023-04-15T08:19:31.270Z,9.16
2023-04-15T08:22:03.884Z,9.15
2023-04-15T08:24:36.950Z,9.10
2023-04-15T08:27:21.222Z,9.06
2023-04-15T08:29:53.851Z,9.04
2023-04-15T08:32:26.935Z,9.02
2023-04-15T08:35:00.908Z,9.00
2023-04-15T09:12:38.514Z,9.32
2023-04-15T09:15:10.035Z,9.45
2023-04-15T09:17:50.254Z,9.61
2023-04-15T09:20:21.846Z,9.73
2023-04-15T09:22:59.037Z,9.85
2023-04-15T09:28:07.349Z,9.95
2023-04-15T09:30:42.212Z,9.98
2023-04-15T09:33:12.320Z,10.00
2023-04-15T09:35:42.526Z,10.02
2023-04-15T09:38:13.378Z,10.11
2023-04-15T09:40:48.027Z,10.17
2023-04-15T09:43:21.411Z,10.29
2023-04-15T09:45:52.793Z,10.35
2023-04-15T09:48:25.664Z,10.37
2023-04-15T09:50:57.903Z,10.41
2023-04-15T09:53:30.479Z,10.40
2023-04-15T09:56:03.160Z,10.40
2023-04-15T09:58:38.955Z,10.37
2023-04-15T10:01:10.300Z,10.30
2023-04-15T10:03:42.624Z,10.23
2023-04-15T10:06:13.482Z,10.20
2023-04-15T10:08:44.329Z,10.22
2023-04-15T10:11:17.918Z,10.22
2023-04-15T10:13:52.666Z,10.22
2023-04-15T10:16:23.832Z,10.23
2023-04-15T10:19:01.174Z,10.25
2023-04-15T10:33:03.641Z,10.32
2023-04-15T10:35:37.157Z,10.33
2023-04-15T10:38:42.035Z,10.34
2023-04-15T10:41:21.163Z,10.32
2023-04-15T10:43:53.375Z,10.29
2023-04-15T10:46:41.775Z,10.27
2023-04-15T10:51:50.727Z,10.22
2023-04-15T10:54:40.659Z,10.21
2023-04-15T11:03:01.981Z,10.09
2023-04-15T11:05:53.596Z,10.09
2023-04-15T11:08:28.143Z,10.04
2023-04-15T11:11:00.748Z,10.00
2023-04-15T11:13:33.375Z,9.99
2023-04-15T11:16:06.776Z,10.10
2023-04-15T11:18:38.231Z,10.12
2023-04-15T11:21:14.683Z,10.04
2023-04-15T11:23:58.068Z,9.97
2023-04-15T11:26:36.167Z,10.01
2023-04-15T11:29:14.768Z,10.03
2023-04-15T11:31:55.747Z,10.02
2023-04-15T11:34:26.602Z,9.96
2023-04-15T11:37:01.012Z,9.97
2023-04-15T11:39:32.637Z,9.94
2023-04-15T11:42:05.290Z,9.95
2023-04-15T11:44:37.855Z,9.99
2023-04-15T11:47:26.252Z,9.98
2023-04-15T11:49:57.809Z,9.92
2023-04-15T11:55:07.016Z,9.95
2023-04-15T11:57:42.610Z,9.95
2023-04-15T12:00:13.878Z,9.94
2023-04-15T12:02:48.994Z,9.94
2023-04-15T12:05:21.658Z,9.88
2023-04-15T12:08:08.423Z,9.84
2023-04-15T12:10:38.364Z,9.84
2023-04-15T12:13:13.276Z,9.84
2023-04-15T12:15:48.360Z,9.84
2023-04-15T12:18:24.667Z,9.83
2023-04-15T12:21:17.189Z,9.80
2023-04-15T12:23:52.332Z,9.75
2023-04-15T12:26:28.643Z,9.78
2023-04-15T12:29:15.316Z,9.75
2023-04-15T12:31:56.360Z,9.74
2023-04-15T12:34:35.953Z,9.78
2023-04-15T12:37:10.857Z,9.84
2023-04-15T12:39:52.544Z,9.86
2023-04-15T12:42:29.942Z,9.89
2023-04-15T12:45:02.572Z,9.90
2023-04-15T12:47:51.987Z,9.91
2023-04-15T12:53:42.884Z,9.95
2023-04-15T12:56:14.177Z,9.94
2023-04-15T12:58:44.174Z,9.92
2023-04-15T13:01:16.834Z,9.92
2023-04-15T13:03:46.862Z,9.91
2023-04-15T13:06:16.886Z,9.88
2023-04-15T13:08:57.851Z,9.88
2023-04-15T13:11:32.068Z,9.86
2023-04-15T13:14:02.536Z,9.87
2023-04-15T13:16:36.922Z,9.82
2023-04-15T13:19:07.595Z,9.83
2023-04-15T13:21:37.513Z,9.84
2023-04-15T13:24:11.319Z,9.87
2023-04-15T13:46:59.193Z,9.71
2023-04-15T13:49:29.933Z,9.69
2023-04-15T13:52:01.302Z,9.70
2023-04-15T13:54:37.366Z,9.67
2023-04-15T13:57:08.276Z,9.66
2023-04-15T13:59:38.142Z,9.68
2023-04-15T14:02:12.970Z,9.67
2023-04-15T14:04:42.916Z,9.61
2023-04-15T14:07:12.960Z,9.58
2023-04-15T14:09:43.526Z,9.58
2023-04-15T14:12:13.511Z,9.64
2023-04-15T14:14:43.429Z,9.58
2023-04-15T14:17:15.859Z,9.56
2023-04-15T14:19:45.729Z,9.51
2023-04-15T14:22:15.572Z,9.53
2023-04-15T14:24:50.101Z,9.54
2023-04-15T14:27:19.951Z,9.54
2023-04-15T14:29:49.839Z,9.52
2023-04-15T14:32:22.285Z,9.53
2023-04-15T14:34:52.172Z,9.49
2023-04-15T14:37:22.154Z,9.45
2023-04-15T14:39:52.003Z,9.42
2023-04-15T14:42:21.841Z,9.37
2023-04-15T14:44:51.707Z,9.36
2023-04-15T14:47:24.481Z,9.37
2023-04-15T14:49:56.171Z,9.33
2023-04-15T14:52:26.022Z,9.36
2023-04-15T14:54:55.865Z,9.34
2023-04-15T14:57:25.731Z,9.33
2023-04-15T14:59:56.876Z,9.35
2023-04-15T15:02:38.350Z,9.35
2023-04-15T15:05:10.267Z,9.36
2023-04-15T15:07:41.350Z,9.32
2023-04-15T15:10:11.725Z,9.29
2023-04-15T15:15:40.567Z,9.27
2023-04-15T15:18:24.625Z,9.26
2023-04-15T15:20:57.378Z,9.22
2023-04-15T15:23:28.862Z,9.22
2023-04-15T15:47:32.761Z,9.09
2023-04-15T15:50:06.128Z,9.04
2023-04-15T15:52:38.571Z,9.06
2023-04-15T15:55:09.380Z,9.02
2023-04-15T15:57:39.194Z,8.97
2023-04-15T16:00:12.753Z,8.95
2023-04-15T16:03:04.425Z,8.91
2023-04-15T16:05:36.506Z,8.93
2023-04-15T16:08:06.353Z,8.93
2023-04-15T16:10:36.407Z,8.93
2023-04-15T16:13:06.283Z,8.95
2023-04-15T16:15:37.594Z,8.92
2023-04-15T16:18:10.129Z,8.88
2023-04-15T16:20:42.493Z,8.89
2023-04-15T16:23:16.080Z,8.91
2023-04-15T16:25:48.521Z,8.86
2023-04-15T16:28:26.212Z,8.84
2023-04-15T16:30:57.364Z,8.84
2023-04-15T16:33:29.899Z,8.85
2023-04-15T16:35:59.747Z,8.83
2023-04-15T16:38:30.356Z,8.82
2023-04-15T16:41:02.739Z,8.78
2023-04-15T16:43:32.740Z,8.76
2023-04-15T16:46:02.631Z,8.77
2023-04-15T16:48:36.212Z,8.80
2023-04-15T16:51:08.356Z,8.79
2023-04-15T16:53:38.253Z,8.79
2023-04-15T16:56:08.882Z,8.74
2023-04-15T16:58:38.717Z,8.76
2023-04-15T17:01:08.676Z,8.77
2023-04-15T17:03:41.344Z,8.78
2023-04-15T17:06:11.293Z,8.74
2023-04-15T17:08:41.111Z,8.75
2023-04-15T17:11:11.406Z,8.72
2023-04-15T17:13:41.325Z,8.72
2023-04-15T17:16:11.725Z,8.77
2023-04-15T17:18:44.340Z,8.77
2023-04-15T17:21:17.737Z,8.77
2023-04-15T17:23:47.615Z,8.75
2023-04-15T17:26:17.448Z,8.76
2023-04-15T17:28:47.590Z,8.77
2023-04-15T17:31:17.482Z,8.73
2023-04-15T17:34:00.864Z,8.74
2023-04-15T17:36:38.050Z,8.69
2023-04-15T17:39:07.970Z,8.71
2023-04-15T17:41:37.876Z,8.73
2023-04-15T17:44:07.777Z,8.78
2023-04-15T17:46:37.747Z,8.78
2023-04-15T17:49:10.352Z,8.80
2023-04-15T17:51:40.234Z,8.82
2023-04-15T17:54:10.064Z,8.82
2023-04-15T17:56:39.912Z,8.83
2023-04-15T17:59:10.842Z,8.83
2023-04-15T18:01:42.670Z,8.84
2023-04-15T18:04:15.319Z,8.84
2023-04-15T18:06:45.324Z,8.84
2023-04-15T18:09:20.544Z,8.83
2023-04-15T18:11:50.370Z,8.83
2023-04-15T18:14:31.116Z,8.81
2023-04-15T18:17:03.986Z,8.82
2023-04-15T18:19:36.474Z,8.83
2023-04-15T18:22:10.650Z,8.81
2023-04-15T18:24:40.648Z,8.76
2023-04-15T18:27:10.627Z,8.76
2023-04-15T18:29:40.524Z,8.79
2023-04-15T18:32:10.441Z,8.79
2023-04-15T18:34:43.136Z,8.80
2023-04-15T18:37:13.038Z,8.82
2023-04-15T18:39:42.961Z,8.84
2023-04-15T18:42:12.887Z,8.86
2023-04-15T18:44:42.739Z,8.87
2023-04-15T18:47:15.637Z,8.87
2023-04-15T18:49:48.430Z,8.85
2023-04-15T18:52:18.356Z,8.86
2023-04-15T18:54:48.301Z,8.87
2023-04-15T18:57:23.759Z,8.89
2023-04-15T19:00:02.683Z,8.89
2023-04-15T19:02:32.801Z,8.88
2023-04-15T19:05:05.888Z,8.88
2023-04-15T19:07:35.988Z,8.95
2023-04-15T19:10:06.160Z,8.97
2023-04-15T19:12:37.533Z,8.94
2023-04-15T19:15:08.113Z,8.93
2023-04-15T19:17:38.010Z,8.93
2023-04-15T19:20:11.446Z,8.94
2023-04-15T19:22:41.933Z,8.94
2023-04-15T19:25:12.637Z,8.97
2023-04-15T19:27:42.527Z,8.94
2023-04-15T19:30:14.982Z,8.93
2023-04-15T19:32:44.844Z,8.88
2023-04-15T19:35:17.372Z,8.86
2023-04-15T19:37:47.324Z,8.87
2023-04-15T19:40:18.806Z,8.86
2023-04-15T19:42:48.664Z,8.84
2023-04-15T19:45:18.663Z,8.80
2023-04-15T19:47:51.617Z,8.83
2023-04-15T19:50:28.024Z,8.82
2023-04-15T19:52:57.836Z,8.81
2023-04-15T19:55:27.671Z,8.80
2023-04-15T19:57:57.489Z,8.82
2023-04-15T20:00:27.725Z,8.82
2023-04-15T20:02:59.121Z,8.82
2023-04-15T20:05:31.653Z,8.84
2023-04-15T20:08:01.621Z,8.85
2023-04-15T20:10:32.012Z,8.87
2023-04-15T20:13:02.063Z,8.86
2023-04-15T20:15:32.092Z,8.87
2023-04-15T20:18:01.996Z,8.90
2023-04-15T20:20:34.549Z,8.94
2023-04-15T20:23:04.448Z,8.95
2023-04-15T20:25:34.238Z,8.92
2023-04-15T20:28:04.217Z,8.94
2023-04-15T20:30:34.115Z,8.92
2023-04-15T20:33:08.625Z,8.95
2023-04-15T20:35:41.339Z,8.94
2023-04-15T20:38:11.325Z,8.91
2023-04-15T20:40:41.841Z,8.93
2023-04-15T20:43:11.925Z,8.92
2023-04-15T20:45:41.782Z,8.94
2023-04-15T20:48:11.734Z,8.93
2023-04-15T20:50:49.857Z,8.94
2023-04-15T20:53:20.843Z,8.97
2023-04-15T20:55:50.754Z,8.99
2023-04-15T20:58:20.760Z,9.00
2023-04-15T21:00:50.716Z,8.99
2023-04-15T21:03:20.791Z,9.01
2023-04-15T21:05:54.874Z,9.03
2023-04-15T21:08:29.574Z,9.06
2023-04-15T21:10:59.735Z,9.04
2023-04-15T21:13:29.651Z,9.06
2023-04-15T21:16:00.402Z,9.06
2023-04-15T21:18:30.352Z,9.07
2023-04-15T21:21:03.717Z,9.07
2023-04-15T21:23:36.110Z,9.05
2023-04-15T21:26:09.095Z,9.04
2023-04-15T21:28:39.541Z,9.04
2023-04-15T21:31:09.388Z,9.05
2023-04-15T21:33:39.462Z,9.09
2023-04-15T21:36:12.067Z,9.07
2023-04-15T21:38:41.967Z,9.08
2023-04-15T21:41:12.365Z,9.10
2023-04-15T21:43:42.231Z,9.10
2023-04-15T21:46:24.369Z,9.12
2023-04-15T21:48:57.512Z,9.10
2023-04-15T21:51:30.158Z,9.09
2023-04-15T21:54:00.012Z,9.12
2023-04-15T21:56:31.407Z,9.13
2023-04-15T21:59:01.613Z,9.12
2023-04-15T22:01:31.603Z,9.13
2023-04-15T22:04:01.656Z,9.14
2023-04-15T22:06:34.908Z,9.16
2023-04-15T22:09:04.715Z,9.13
2023-04-15T22:11:34.533Z,9.12
2023-04-15T22:14:08.568Z,9.08
2023-04-15T22:16:38.529Z,9.07
2023-04-15T22:19:09.014Z,9.07
2023-04-15T22:21:41.511Z,9.06
2023-04-15T22:24:34.429Z,9.04
2023-04-15T22:27:03.024Z,9.02
2023-04-15T22:29:33.051Z,9.06
2023-04-15T22:32:02.909Z,9.08
2023-04-15T22:34:32.820Z,9.03
2023-04-15T22:37:05.352Z,9.05
2023-04-15T22:39:35.484Z,9.08
2023-04-15T22:42:05.378Z,9.08
2023-04-15T22:44:35.248Z,9.05
2023-04-15T22:47:14.237Z,9.01
2023-04-15T22:49:45.066Z,9.02
2023-04-15T22:52:29.501Z,9.03
2023-04-15T22:55:00.346Z,9.06
2023-04-15T22:57:31.139Z,9.05
2023-04-15T23:00:01.431Z,9.04
2023-04-15T23:02:31.387Z,9.07
2023-04-15T23:05:12.523Z,9.09
2023-04-15T23:07:45.884Z,9.10
2023-04-15T23:10:15.938Z,9.10
2023-04-15T23:12:45.772Z,9.13
2023-04-15T23:15:15.781Z,9.13
2023-04-15T23:17:45.973Z,9.13
2023-04-15T23:20:16.512Z,9.12
2023-04-15T23:22:48.986Z,9.15
2023-04-15T23:25:21.308Z,9.17
2023-04-15T23:27:51.118Z,9.17
2023-04-15T23:30:21.188Z,9.15
2023-04-15T23:32:51.149Z,9.13
2023-04-15T23:35:21.109Z,9.08
2023-04-15T23:37:53.751Z,9.10
2023-04-15T23:40:23.682Z,9.10
2023-04-15T23:42:53.528Z,9.09
2023-04-15T23:45:23.365Z,9.10
2023-04-15T23:47:59.312Z,9.07
2023-04-15T23:50:35.306Z,9.03
2023-04-15T23:53:07.824Z,9.01
2023-04-15T23:55:37.893Z,9.00
2023-04-15T23:58:07.667Z,8.97
